Union, Nebraska
Current Conditions -  °F | °C
As of 3:55 AM on Friday 31 Oct 2014 (Local Time) from KPMV Reporting Station
Broken Clouds Broken Clouds  
Wind Chill: 22°   Ceiling: 2700
Heat Index: 32°   Visibility: 10mi
Dew Point: 21°   Wind: 15mph
Humidity: 63%   Direction: 360°N
Pressure: 30.45"   Gusts: 24mph
Location:  40.81°N, 95.92°W
Report Text: KPMV 310855Z AUTO 36013G21KT 10SM BKN027 00/M06 A3045 RMK AO2 T00011062
Loading
Personal Weather Stations






























Interactive Weather Map
Tropical Storm Tracking
New forecast layout! Learn more

10-Day Weather Forecast

Advertisements
Track Severe Weather on mobile